Time;durP1;ratioP1;P1;durP2;ratioP2;P2;SDS_P1;SDS_P2;PMS_P1;PMS_P2;Temp;Humidity;BMP_temperature;BMP_pressure;BME280_temperature;BME280_humidity;BME280_pressure;Samples;Min_cycle;Max_cycle;Signal;HPM_P1;HPM_P2
2022/03/18 00:00:43;;;;;;;9.80;2.87;;;5.20;99.90;;;;;;5008444;28;20671;-79
2022/03/18 00:03:11;;;;;;;5.43;3.03;;;5.20;99.90;;;;;;5008212;28;20211;-79
2022/03/18 00:05:41;;;;;;;8.17;2.90;;;5.20;99.90;;;;;;5008183;28;20574;-79
2022/03/18 00:08:08;;;;;;;6.13;2.77;;;5.20;99.90;;;;;;5008236;28;20222;-79
2022/03/18 00:10:35;;;;;;;7.07;2.70;;;5.20;99.90;;;;;;5007826;28;20213;-79
2022/03/18 00:13:01;;;;;;;11.07;3.23;;;5.20;99.90;;;;;;5015613;28;20210;-79
2022/03/18 00:15:28;;;;;;;10.20;3.27;;;5.20;99.90;;;;;;5027808;28;20249;-79
2022/03/18 00:17:56;;;;;;;5.07;2.27;;;5.20;99.90;;;;;;5027638;28;20231;-77
2022/03/18 00:20:24;;;;;;;10.63;3.40;;;5.20;99.90;;;;;;5008050;28;20358;-79
2022/03/18 00:22:52;;;;;;;7.87;2.77;;;5.20;99.90;;;;;;5008035;28;20199;-78
2022/03/18 00:25:20;;;;;;;4.90;2.83;;;5.20;99.90;;;;;;5008124;28;20315;-80
2022/03/18 00:27:48;;;;;;;9.63;2.37;;;5.20;99.90;;;;;;5008193;28;20195;-80
2022/03/18 00:30:16;;;;;;;7.47;2.80;;;5.10;99.90;;;;;;5007347;28;20207;-77
2022/03/18 00:32:44;;;;;;;7.43;2.70;;;5.10;99.90;;;;;;5007941;28;20215;-78
2022/03/18 00:35:11;;;;;;;9.27;2.63;;;5.10;99.90;;;;;;5009169;28;20196;-78
2022/03/18 00:37:39;;;;;;;10.27;2.83;;;5.10;99.90;;;;;;5026599;28;20203;-79
2022/03/18 00:40:09;;;;;;;6.27;2.70;;;5.00;99.90;;;;;;5025441;28;20591;-79
2022/03/18 00:42:37;;;;;;;10.03;2.77;;;5.00;99.90;;;;;;5027395;28;20206;-79
2022/03/18 00:45:05;;;;;;;7.23;2.93;;;5.00;99.90;;;;;;5023172;28;20211;-79
2022/03/18 00:53:01;;;;;;;7.03;2.87;;;4.90;99.90;;;;;;5026663;28;20201;-79
2022/03/18 00:55:31;;;;;;;6.10;2.50;;;4.90;99.90;;;;;;5026541;28;20202;-78
2022/03/18 00:57:58;;;;;;;7.17;2.80;;;4.80;99.90;;;;;;5007038;28;20376;-77
2022/03/18 01:00:25;;;;;;;7.83;3.17;;;4.80;99.90;;;;;;5006285;28;20203;-76
2022/03/18 01:02:52;;;;;;;6.37;2.93;;;4.80;99.90;;;;;;5007048;28;20907;-78
2022/03/18 01:05:18;;;;;;;4.80;2.77;;;4.80;99.90;;;;;;5005887;28;20203;-77
2022/03/18 01:07:45;;;;;;;5.83;2.83;;;4.80;99.90;;;;;;5019376;28;20223;-76
2022/03/18 01:10:12;;;;;;;7.70;3.17;;;4.80;99.90;;;;;;5006989;28;20210;-75
2022/03/18 01:12:40;;;;;;;4.17;2.40;;;4.80;99.90;;;;;;5005915;28;20215;-75
2022/03/18 01:15:08;;;;;;;4.73;2.27;;;4.70;99.90;;;;;;5006591;28;20246;-77
2022/03/18 01:17:36;;;;;;;8.17;3.37;;;4.70;99.90;;;;;;5006375;28;20195;-75
2022/03/18 01:20:03;;;;;;;7.50;3.10;;;4.60;99.90;;;;;;5005998;28;20654;-78
2022/03/18 01:22:30;;;;;;;5.83;2.80;;;4.60;99.90;;;;;;5006698;28;20646;-75
2022/03/18 01:24:57;;;;;;;5.53;2.57;;;4.60;99.90;;;;;;5006488;28;20635;-79
2022/03/18 01:27:24;;;;;;;5.90;2.63;;;4.60;99.90;;;;;;5007950;28;20211;-79
2022/03/18 01:29:52;;;;;;;5.70;3.13;;;4.60;99.90;;;;;;5015510;28;20541;-75
2022/03/18 01:32:19;;;;;;;10.53;2.83;;;4.60;99.90;;;;;;5013727;28;20223;-78
2022/03/18 01:34:45;;;;;;;6.67;3.17;;;4.50;99.90;;;;;;5005885;28;20196;-79
2022/03/18 01:37:12;;;;;;;8.93;2.87;;;4.60;99.90;;;;;;5006168;28;20222;-78
2022/03/18 01:39:39;;;;;;;6.13;3.13;;;4.60;99.90;;;;;;5007118;28;20318;-78
2022/03/18 01:42:06;;;;;;;7.27;3.03;;;4.60;99.90;;;;;;5005333;28;20223;-78
2022/03/18 01:44:41;;;;;;;4.33;2.13;;;4.60;99.90;;;;;;5006358;28;20211;-78
2022/03/18 01:47:10;;;;;;;5.90;2.57;;;4.60;99.90;;;;;;5008245;28;20197;-78
2022/03/18 01:49:37;;;;;;;5.17;2.50;;;4.60;99.90;;;;;;4959493;28;20675;-78
2022/03/18 01:52:05;;;;;;;6.60;2.83;;;4.60;99.90;;;;;;4939231;28;20230;-79
2022/03/18 01:54:51;;;;;;;6.13;2.90;;;4.60;99.90;;;;;;4937812;28;20206;-79
2022/03/18 01:57:20;;;;;;;9.20;2.57;;;4.60;99.90;;;;;;5005801;28;20302;-76
2022/03/18 01:59:47;;;;;;;5.07;2.60;;;4.60;99.90;;;;;;5011095;28;20247;-76
2022/03/18 02:02:16;;;;;;;7.37;2.37;;;4.60;99.90;;;;;;5024559;28;20199;-75
2022/03/18 02:04:44;;;;;;;4.93;1.93;;;4.60;99.90;;;;;;5025506;28;20218;-77
2022/03/18 02:07:11;;;;;;;6.30;3.17;;;4.50;99.90;;;;;;5025465;28;20214;-79
2022/03/18 02:09:39;;;;;;;4.87;2.27;;;4.50;99.90;;;;;;5011757;28;20235;-77
2022/03/18 02:12:09;;;;;;;5.67;2.33;;;4.50;99.90;;;;;;5006100;28;20749;-76
2022/03/18 02:14:37;;;;;;;4.57;2.10;;;4.40;99.90;;;;;;5024992;28;20354;-75
2022/03/18 02:17:06;;;;;;;6.80;2.10;;;4.40;99.90;;;;;;5010969;28;20211;-79
2022/03/18 02:19:35;;;;;;;6.33;2.17;;;4.40;99.90;;;;;;5005324;28;20219;-75
2022/03/18 02:22:10;;;;;;;4.03;2.33;;;4.40;99.90;;;;;;5005022;28;20203;-76
2022/03/18 02:24:39;;;;;;;7.27;2.70;;;4.30;99.90;;;;;;5005066;28;20318;-79
2022/03/18 02:27:06;;;;;;;5.73;2.83;;;4.30;99.90;;;;;;5005189;28;20211;-75
2022/03/18 02:29:34;;;;;;;5.33;3.40;;;4.30;99.90;;;;;;5005053;28;20195;-74
2022/03/18 02:32:03;;;;;;;6.87;3.13;;;4.40;99.90;;;;;;5005544;28;20214;-78
2022/03/18 02:34:30;;;;;;;7.10;2.90;;;4.40;99.90;;;;;;5021176;28;20206;-76
2022/03/18 02:36:57;;;;;;;6.40;3.00;;;4.40;99.90;;;;;;5025018;28;20199;-74
2022/03/18 02:39:24;;;;;;;7.13;3.17;;;4.50;99.90;;;;;;5024518;28;20250;-76
2022/03/18 02:41:52;;;;;;;6.40;3.00;;;4.50;99.90;;;;;;5010622;28;20203;-74
2022/03/18 02:44:19;;;;;;;10.30;3.00;;;4.50;99.90;;;;;;5004622;28;20507;-75
2022/03/18 02:46:46;;;;;;;10.90;3.60;;;4.50;99.90;;;;;;5003913;28;20211;-76
2022/03/18 02:49:12;;;;;;;7.83;3.77;;;4.50;99.90;;;;;;5004732;28;20600;-80
2022/03/18 02:51:39;;;;;;;7.60;3.67;;;4.50;99.90;;;;;;5004724;28;20314;-74
2022/03/18 02:54:07;;;;;;;10.93;4.17;;;4.50;99.90;;;;;;5005089;28;20511;-75
2022/03/18 02:56:35;;;;;;;15.30;4.30;;;4.50;99.90;;;;;;5004831;28;20214;-76
2022/03/18 02:59:04;;;;;;;7.30;3.40;;;4.50;99.90;;;;;;5003469;28;20231;-78
2022/03/18 03:01:31;;;;;;;9.73;3.40;;;4.50;99.90;;;;;;5005124;28;20211;-77
2022/03/18 03:03:59;;;;;;;9.37;3.47;;;4.50;99.90;;;;;;5011153;28;20227;-77
2022/03/18 03:09:16;;;;;;;16.40;4.03;;;4.50;99.90;;;;;;4968701;28;20287;-77
2022/03/18 03:11:44;;;;;;;10.23;4.13;;;4.50;99.90;;;;;;5019979;28;20211;-79
2022/03/18 03:14:12;;;;;;;8.67;3.07;;;4.40;99.90;;;;;;5006046;28;20239;-79
2022/03/18 03:16:39;;;;;;;11.47;4.27;;;4.40;99.90;;;;;;5005613;28;20293;-76
2022/03/18 03:19:05;;;;;;;7.90;3.80;;;4.40;99.90;;;;;;5004577;28;20635;-79
2022/03/18 03:21:34;;;;;;;7.20;3.50;;;4.30;99.90;;;;;;5005375;28;20549;-79
2022/03/18 03:24:01;;;;;;;6.57;3.37;;;4.30;99.90;;;;;;5005665;28;20207;-79
2022/03/18 03:26:28;;;;;;;6.47;3.47;;;4.30;99.90;;;;;;5004221;28;20621;-79
2022/03/18 03:28:55;;;;;;;6.80;3.70;;;4.20;99.90;;;;;;5010230;28;20215;-79
2022/03/18 03:31:23;;;;;;;11.50;4.60;;;4.20;99.90;;;;;;5009894;28;20687;-79
2022/03/18 03:33:50;;;;;;;10.13;5.40;;;4.20;99.90;;;;;;5004911;28;20211;-78
2022/03/18 03:36:16;;;;;;;8.37;4.17;;;4.20;99.90;;;;;;5005864;28;20207;-78
2022/03/18 03:38:43;;;;;;;11.43;4.47;;;4.20;99.90;;;;;;5005851;28;20234;-79
2022/03/18 03:41:10;;;;;;;15.30;5.30;;;4.10;99.90;;;;;;5004978;28;20203;-79
2022/03/18 03:43:41;;;;;;;13.27;5.37;;;4.10;99.90;;;;;;5005135;28;20667;-79
2022/03/18 03:46:08;;;;;;;16.83;6.27;;;4.10;99.90;;;;;;5004686;28;20909;-76
2022/03/18 03:48:36;;;;;;;20.43;7.87;;;4.20;99.90;;;;;;5021130;28;20199;-79
2022/03/18 03:51:03;;;;;;;26.00;8.70;;;4.20;99.90;;;;;;5025671;28;20670;-80
2022/03/18 03:53:29;;;;;;;28.23;7.47;;;4.30;99.90;;;;;;5024218;28;20298;-80
2022/03/18 03:55:56;;;;;;;23.50;6.93;;;4.30;99.90;;;;;;5009186;28;20607;-79
2022/03/18 03:58:23;;;;;;;22.90;7.27;;;4.40;99.90;;;;;;5005211;28;20219;-80
2022/03/18 04:00:50;;;;;;;18.07;6.77;;;4.40;99.90;;;;;;5004932;28;20242;-79
2022/03/18 04:03:16;;;;;;;18.83;6.47;;;4.40;99.90;;;;;;5004906;28;20846;-79
2022/03/18 04:05:45;;;;;;;21.03;7.30;;;4.40;99.90;;;;;;5004584;28;20917;-80
2022/03/18 04:08:12;;;;;;;18.50;6.40;;;4.40;99.90;;;;;;5004256;28;20302;-80
2022/03/18 04:10:42;;;;;;;20.53;7.47;;;4.40;99.90;;;;;;5012463;28;20202;-79
2022/03/18 04:13:10;;;;;;;21.30;7.80;;;4.40;99.90;;;;;;5013222;28;20211;-78
2022/03/18 04:15:38;;;;;;;20.27;7.50;;;4.40;99.90;;;;;;5016704;28;20231;-80
2022/03/18 04:18:05;;;;;;;19.33;7.00;;;4.40;99.90;;;;;;5014613;28;20276;-77
2022/03/18 04:20:33;;;;;;;17.57;7.00;;;4.40;99.90;;;;;;5013834;28;20238;-79
2022/03/18 04:23:01;;;;;;;15.37;6.20;;;4.40;99.90;;;;;;5009314;28;20203;-76
2022/03/18 04:25:30;;;;;;;18.33;6.73;;;4.30;99.90;;;;;;5009792;28;20207;-76
2022/03/18 04:27:57;;;;;;;21.03;6.47;;;4.30;99.90;;;;;;5011133;28;20206;-78
2022/03/18 04:30:24;;;;;;;17.43;6.83;;;4.30;99.90;;;;;;5007856;28;20211;-78
2022/03/18 04:32:51;;;;;;;14.13;5.93;;;4.30;99.90;;;;;;5012288;28;20269;-79
2022/03/18 04:35:18;;;;;;;16.20;6.30;;;4.30;99.90;;;;;;5009790;28;20211;-79
2022/03/18 04:37:44;;;;;;;15.83;6.17;;;4.30;99.90;;;;;;5009536;28;20202;-76
2022/03/18 04:40:14;;;;;;;12.57;5.97;;;4.40;99.90;;;;;;5012093;28;20225;-80
2022/03/18 04:42:41;;;;;;;16.77;5.63;;;4.40;99.90;;;;;;5013816;28;20212;-78
2022/03/18 04:45:10;;;;;;;11.30;5.70;;;4.30;99.90;;;;;;5018585;28;20337;-78
2022/03/18 04:47:37;;;;;;;13.20;6.03;;;4.30;99.90;;;;;;5024389;28;20195;-78
2022/03/18 04:50:06;;;;;;;15.27;5.30;;;4.30;99.90;;;;;;5027116;28;20229;-79
2022/03/18 04:52:32;;;;;;;17.00;6.03;;;4.30;99.90;;;;;;5009765;28;20644;-79
2022/03/18 04:54:59;;;;;;;10.40;5.10;;;4.30;99.90;;;;;;5007869;28;20203;-79
2022/03/18 04:57:28;;;;;;;9.80;5.43;;;4.20;99.90;;;;;;5006941;28;20509;-78
2022/03/18 04:59:56;;;;;;;10.70;5.77;;;4.20;99.90;;;;;;5007870;28;20215;-79
2022/03/18 05:02:24;;;;;;;12.13;6.23;;;4.20;99.90;;;;;;5007786;28;20334;-79
2022/03/18 05:04:53;;;;;;;16.10;6.07;;;4.20;99.90;;;;;;5007517;28;20693;-78
2022/03/18 05:07:20;;;;;;;13.07;5.93;;;4.10;99.90;;;;;;5007228;28;20203;-79
2022/03/18 05:09:47;;;;;;;15.20;6.80;;;4.10;99.90;;;;;;5007658;28;20210;-79
2022/03/18 05:12:16;;;;;;;12.00;5.17;;;4.10;99.90;;;;;;5007075;28;20199;-79
2022/03/18 05:14:44;;;;;;;11.03;5.83;;;4.10;99.90;;;;;;5007120;28;20255;-79
2022/03/18 05:17:12;;;;;;;13.93;5.27;;;4.10;99.90;;;;;;5007265;28;20214;-79
2022/03/18 05:19:40;;;;;;;12.03;5.80;;;4.00;99.90;;;;;;5006838;28;20293;-79
2022/03/18 05:22:08;;;;;;;9.93;5.03;;;4.00;99.90;;;;;;5007270;28;20287;-80
2022/03/18 05:24:35;;;;;;;11.43;5.17;;;4.00;99.90;;;;;;5014161;28;20242;-80
2022/03/18 05:27:02;;;;;;;12.23;4.60;;;4.00;99.90;;;;;;5014012;28;20222;-80
2022/03/18 05:29:29;;;;;;;15.83;5.20;;;4.00;99.90;;;;;;5016424;28;20710;-76
2022/03/18 05:31:58;;;;;;;11.50;5.00;;;4.00;99.90;;;;;;5006070;28;20227;-74
2022/03/18 05:34:25;;;;;;;10.97;5.10;;;3.90;99.90;;;;;;5005647;28;20691;-75
2022/03/18 05:36:52;;;;;;;10.07;4.97;;;3.90;99.90;;;;;;4988699;28;20207;-75
2022/03/18 05:39:19;;;;;;;11.07;5.20;;;3.90;99.90;;;;;;5005156;28;20223;-74
2022/03/18 05:41:46;;;;;;;7.27;4.60;;;3.90;99.90;;;;;;5006082;28;21088;-76
2022/03/18 05:44:14;;;;;;;8.33;3.90;;;3.90;99.90;;;;;;5005365;28;20210;-78
2022/03/18 05:46:40;;;;;;;10.97;4.83;;;3.90;99.90;;;;;;5007414;28;20211;-80
2022/03/18 05:49:09;;;;;;;14.53;5.63;;;3.80;99.90;;;;;;5025954;28;20217;-75
2022/03/18 05:51:36;;;;;;;7.23;4.60;;;3.80;99.90;;;;;;5025667;28;20573;-77
2022/03/18 05:54:03;;;;;;;12.23;4.57;;;3.80;99.90;;;;;;5025762;28;20202;-79
2022/03/18 05:59:18;;;;;;;10.83;4.43;;;3.80;99.90;;;;;;5014134;28;20247;-77
2022/03/18 06:01:45;;;;;;;11.37;5.00;;;3.70;99.90;;;;;;5022617;28;20563;-78
2022/03/18 06:04:14;;;;;;;10.47;5.07;;;3.70;99.90;;;;;;5006942;28;20203;-79
2022/03/18 06:06:41;;;;;;;9.47;4.67;;;3.70;99.90;;;;;;5006403;28;20600;-80
2022/03/18 06:11:53;;;;;;;9.43;4.90;;;3.70;99.90;;;;;;5006371;28;20210;-76
2022/03/18 06:14:22;;;;;;;9.10;4.90;;;3.70;99.90;;;;;;5005037;28;20339;-78
2022/03/18 06:16:51;;;;;;;13.83;5.53;;;3.70;99.90;;;;;;5005752;28;20207;-78
2022/03/18 06:19:20;;;;;;;9.00;4.97;;;3.70;99.90;;;;;;5006022;28;20231;-78
2022/03/18 06:21:47;;;;;;;11.30;5.20;;;3.70;99.90;;;;;;5011983;28;20214;-78
2022/03/18 06:24:15;;;;;;;9.93;4.97;;;3.70;99.90;;;;;;5006070;28;20215;-79
2022/03/18 06:26:42;;;;;;;10.33;5.20;;;3.70;99.90;;;;;;5005828;28;20218;-78
2022/03/18 06:29:10;;;;;;;8.90;4.77;;;3.70;99.90;;;;;;5006465;28;20225;-78
2022/03/18 06:31:39;;;;;;;12.27;5.43;;;3.80;99.90;;;;;;5024009;28;20207;-80
2022/03/18 06:34:06;;;;;;;10.40;6.37;;;3.80;99.90;;;;;;5025338;28;20330;-79
2022/03/18 06:36:34;;;;;;;8.00;5.13;;;3.80;99.90;;;;;;5024058;28;20604;-79
2022/03/18 06:39:00;;;;;;;10.57;5.40;;;3.80;99.90;;;;;;5024882;28;20210;-78
2022/03/18 06:41:27;;;;;;;11.53;5.97;;;3.80;99.90;;;;;;5025902;28;20747;-80
2022/03/18 06:43:54;;;;;;;11.67;5.87;;;3.80;99.90;;;;;;5023816;28;20211;-79
2022/03/18 06:46:21;;;;;;;18.67;7.10;;;3.90;99.90;;;;;;5024668;28;20218;-80
2022/03/18 06:48:48;;;;;;;12.77;6.30;;;3.90;99.90;;;;;;5006146;28;20203;-76
2022/03/18 06:51:15;;;;;;;9.37;5.73;;;3.90;99.90;;;;;;5004516;28;20218;-77
2022/03/18 06:53:44;;;;;;;15.23;6.20;;;4.00;99.90;;;;;;5005033;28;20207;-76
2022/03/18 06:56:13;;;;;;;11.40;6.13;;;4.00;99.90;;;;;;5006196;28;20714;-77
2022/03/18 06:58:40;;;;;;;8.33;5.67;;;4.00;99.90;;;;;;5020893;28;20264;-77
2022/03/18 07:01:07;;;;;;;13.10;6.10;;;4.00;99.90;;;;;;5005130;28;20353;-76
2022/03/18 07:03:34;;;;;;;12.00;5.67;;;4.10;99.90;;;;;;5005602;28;20203;-78
2022/03/18 07:06:01;;;;;;;8.47;5.70;;;4.10;99.90;;;;;;5019053;28;20237;-76
2022/03/18 07:08:27;;;;;;;11.27;6.33;;;4.10;99.90;;;;;;5014631;28;20211;-79
2022/03/18 07:14:20;;;;;;;17.37;6.40;;;4.20;99.90;;;;;;4963881;28;20651;-80
2022/03/18 07:19:33;;;;;;;16.23;7.70;;;4.30;99.90;;;;;;5024348;28;20309;-78
2022/03/18 07:21:59;;;;;;;13.73;7.17;;;4.40;99.90;;;;;;5025065;28;20191;-73
2022/03/18 07:24:27;;;;;;;17.60;7.23;;;4.40;99.90;;;;;;5015739;28;20222;-75
2022/03/18 07:26:53;;;;;;;18.33;6.80;;;4.50;99.90;;;;;;5008548;28;20211;-80
2022/03/18 07:29:21;;;;;;;16.53;6.87;;;4.60;99.90;;;;;;5001281;28;20203;-79
2022/03/18 07:31:48;;;;;;;14.43;6.87;;;4.60;99.90;;;;;;5004041;28;20214;-78
2022/03/18 07:34:15;;;;;;;16.67;7.03;;;4.70;99.90;;;;;;5005653;28;20596;-80
2022/03/18 07:36:42;;;;;;;15.40;7.43;;;4.80;99.90;;;;;;5006172;28;20240;-79
2022/03/18 07:39:08;;;;;;;15.13;7.37;;;4.90;99.90;;;;;;5005518;28;20200;-80
2022/03/18 07:41:35;;;;;;;21.40;7.83;;;5.00;99.90;;;;;;5005388;28;20222;-80
2022/03/18 07:44:03;;;;;;;22.27;9.33;;;5.10;99.90;;;;;;5005704;28;20208;-80
2022/03/18 07:46:31;;;;;;;17.33;7.30;;;5.20;99.90;;;;;;5019021;28;20226;-80
2022/03/18 07:48:58;;;;;;;20.60;7.53;;;5.40;99.90;;;;;;5007293;28;20203;-81
2022/03/18 07:51:25;;;;;;;16.53;7.90;;;5.50;99.90;;;;;;5011291;28;20223;-81
2022/03/18 07:53:52;;;;;;;17.33;7.73;;;5.70;99.90;;;;;;5011488;28;20211;-82
2022/03/18 07:56:18;;;;;;;18.23;6.53;;;5.90;99.90;;;;;;5029687;28;20225;-81
2022/03/18 07:58:45;;;;;;;18.03;6.50;;;6.20;99.90;;;;;;5030680;28;20297;-82
2022/03/18 08:01:12;;;;;;;14.03;5.40;;;6.40;99.90;;;;;;5027328;28;20237;-77
2022/03/18 08:03:40;;;;;;;17.57;6.30;;;6.60;99.90;;;;;;5028389;28;20233;-77
2022/03/18 08:06:07;;;;;;;18.03;6.80;;;6.80;99.90;;;;;;5028558;28;20987;-79
2022/03/18 08:08:34;;;;;;;17.70;6.73;;;7.10;99.90;;;;;;5014219;28;20207;-79
2022/03/18 08:11:01;;;;;;;13.57;5.97;;;7.20;99.90;;;;;;5009170;28;20207;-77
2022/03/18 08:13:28;;;;;;;12.43;6.40;;;7.40;99.90;;;;;;5005637;28;20210;-76
2022/03/18 08:15:55;;;;;;;14.70;6.37;;;7.60;99.90;;;;;;5006219;28;21087;-80
2022/03/18 08:18:23;;;;;;;21.30;7.10;;;7.70;99.90;;;;;;5020158;28;20241;-77
2022/03/18 08:20:52;;;;;;;21.23;7.70;;;7.90;99.90;;;;;;5027084;28;20237;-76
2022/03/18 08:23:19;;;;;;;15.63;6.93;;;8.00;99.90;;;;;;5025962;28;20241;-75
2022/03/18 08:25:46;;;;;;;24.83;7.83;;;8.10;99.90;;;;;;5007325;28;20790;-75
2022/03/18 08:28:13;;;;;;;14.07;6.50;;;8.30;99.90;;;;;;5005043;28;20230;-77
2022/03/18 08:30:40;;;;;;;16.17;7.10;;;8.40;99.90;;;;;;5007691;28;20234;-75
2022/03/18 08:33:07;;;;;;;16.63;6.53;;;8.50;99.90;;;;;;5006732;28;20281;-77
2022/03/18 08:35:36;;;;;;;15.37;6.40;;;8.70;99.90;;;;;;4988794;28;20218;-76
2022/03/18 08:38:07;;;;;;;18.43;6.93;;;8.80;99.90;;;;;;5014904;28;20245;-76
2022/03/18 08:40:36;;;;;;;19.33;7.53;;;8.90;99.90;;;;;;5026019;28;20373;-76
2022/03/18 08:43:04;;;;;;;17.17;7.13;;;9.10;99.90;;;;;;5024458;28;20214;-77
2022/03/18 08:45:31;;;;;;;14.70;6.37;;;9.20;99.90;;;;;;5026012;28;20225;-74
2022/03/18 08:47:58;;;;;;;16.03;6.73;;;9.40;99.90;;;;;;5020698;28;20693;-77
2022/03/18 08:50:25;;;;;;;15.37;6.83;;;9.50;99.90;;;;;;5010852;28;20211;-77
2022/03/18 08:52:53;;;;;;;12.07;6.37;;;9.60;99.90;;;;;;5015973;28;20219;-75
2022/03/18 08:55:22;;;;;;;16.73;5.83;;;9.80;99.90;;;;;;5006205;28;20211;-77
2022/03/18 08:57:49;;;;;;;12.23;5.03;;;9.90;99.90;;;;;;5005209;28;20756;-74
2022/03/18 09:00:17;;;;;;;12.03;6.57;;;10.00;99.90;;;;;;5006149;28;20218;-77
2022/03/18 09:02:46;;;;;;;16.33;6.53;;;10.20;99.90;;;;;;5006685;28;20222;-76
2022/03/18 09:05:14;;;;;;;15.07;5.60;;;10.30;99.90;;;;;;5004941;28;20216;-77
2022/03/18 09:07:41;;;;;;;14.90;5.60;;;10.40;99.90;;;;;;5008277;28;20222;-80
2022/03/18 09:10:10;;;;;;;14.80;6.17;;;10.50;99.90;;;;;;5006989;28;20650;-76
2022/03/18 09:12:44;;;;;;;9.70;5.67;;;10.60;99.90;;;;;;5006778;28;20214;-79
2022/03/18 09:15:11;;;;;;;14.93;5.77;;;10.70;99.90;;;;;;5006710;28;20234;-78
2022/03/18 09:17:38;;;;;;;11.63;5.60;;;10.80;99.90;;;;;;5009839;28;20219;-81
2022/03/18 09:20:06;;;;;;;13.30;6.23;;;10.90;99.90;;;;;;5017860;28;20219;-79
2022/03/18 09:22:33;;;;;;;11.80;5.03;;;11.00;99.90;;;;;;5008224;28;20687;-78
2022/03/18 09:25:00;;;;;;;18.97;5.33;;;11.10;99.90;;;;;;5005887;28;20211;-76
2022/03/18 09:27:26;;;;;;;13.43;4.70;;;11.20;99.90;;;;;;5006320;28;20224;-75
2022/03/18 09:29:56;;;;;;;12.57;5.53;;;11.30;99.90;;;;;;5006634;28;20211;-79
2022/03/18 09:32:23;;;;;;;13.10;5.93;;;11.40;99.90;;;;;;5006251;28;20207;-80
2022/03/18 09:34:50;;;;;;;15.17;5.63;;;11.50;99.90;;;;;;5007715;28;20215;-75
2022/03/18 09:37:17;;;;;;;10.47;4.70;;;11.60;99.90;;;;;;5007312;28;20591;-79
2022/03/18 09:39:43;;;;;;;14.63;5.47;;;11.80;99.90;;;;;;5007227;28;20214;-75
2022/03/18 09:42:10;;;;;;;12.40;5.60;;;11.90;99.90;;;;;;5006834;28;20314;-79
2022/03/18 09:44:38;;;;;;;16.47;5.80;;;12.00;99.90;;;;;;5007437;28;20203;-81
2022/03/18 09:47:10;;;;;;;13.93;5.70;;;12.10;99.90;;;;;;5010342;28;20492;-82
2022/03/18 09:49:37;;;;;;;12.97;5.27;;;12.20;99.90;;;;;;5009626;28;20296;-82
2022/03/18 09:52:06;;;;;;;12.07;5.60;;;12.30;99.90;;;;;;5009271;28;20223;-79
2022/03/18 09:54:34;;;;;;;9.67;5.13;;;12.50;99.90;;;;;;5007123;28;20207;-78
2022/03/18 09:57:02;;;;;;;10.77;5.67;;;12.60;99.90;;;;;;5006574;28;20216;-81
2022/03/18 09:59:29;;;;;;;13.40;5.70;;;12.70;99.90;;;;;;5006285;28;20222;-79
2022/03/18 10:02:28;;;;;;;10.23;5.37;;;12.70;99.90;;;;;;5007213;28;20230;-79
2022/03/18 10:04:57;;;;;;;17.33;6.00;;;12.90;99.90;;;;;;5000060;28;20214;-81
2022/03/18 10:07:24;;;;;;;10.43;5.40;;;13.10;99.90;;;;;;5008431;28;20584;-82
2022/03/18 10:10:02;;;;;;;15.70;5.10;;;13.20;99.90;;;;;;5008081;28;20210;-82
2022/03/18 10:12:30;;;;;;;7.57;4.50;;;13.30;99.90;;;;;;5007081;28;20200;-82
2022/03/18 10:15:09;;;;;;;11.07;6.17;;;13.40;99.90;;;;;;5007151;28;20243;-80
2022/03/18 10:17:42;;;;;;;11.63;5.57;;;13.50;99.90;;;;;;5009225;28;20207;-82
2022/03/18 10:20:22;;;;;;;15.00;6.13;;;13.70;99.90;;;;;;5009596;28;20210;-81
2022/03/18 10:22:49;;;;;;;11.67;5.30;;;13.80;99.90;;;;;;5009553;28;20231;-79
2022/03/18 10:25:35;;;;;;;12.17;5.30;;;13.90;99.90;;;;;;5007120;28;20207;-81
2022/03/18 10:28:02;;;;;;;13.17;5.10;;;14.10;99.90;;;;;;5006034;28;20210;-77
2022/03/18 10:30:29;;;;;;;14.73;5.33;;;14.20;99.90;;;;;;5005434;28;20219;-79
2022/03/18 10:32:58;;;;;;;11.97;5.67;;;14.30;99.90;;;;;;5006860;28;20341;-77
2022/03/18 10:38:27;;;;;;;9.23;5.03;;;14.40;99.90;;;;;;5008340;28;20241;-80
2022/03/18 10:40:55;;;;;;;10.87;5.03;;;14.60;99.90;;;;;;5008880;28;20274;-83
2022/03/18 10:43:22;;;;;;;15.53;5.73;;;14.90;99.90;;;;;;5007637;28;20207;-83
2022/03/18 10:46:07;;;;;;;8.73;4.77;;;15.00;99.90;;;;;;5006492;28;20916;-76
2022/03/18 10:48:35;;;;;;;8.80;4.67;;;15.10;99.90;;;;;;5021334;28;20865;-78
2022/03/18 10:51:06;;;;;;;9.20;4.73;;;15.20;99.90;;;;;;5018414;28;20246;-79
2022/03/18 10:53:39;;;;;;;9.90;4.87;;;15.30;99.90;;;;;;5005214;28;20199;-79
2022/03/18 10:56:05;;;;;;;9.00;4.37;;;15.50;99.90;;;;;;5005289;28;20684;-79
2022/03/18 10:58:33;;;;;;;8.70;5.43;;;15.50;99.90;;;;;;5005286;28;20412;-77
2022/03/18 11:01:03;;;;;;;12.88;4.97;;;15.50;99.90;;;;;;5005085;28;20215;-78
2022/03/18 11:03:32;;;;;;;13.50;5.13;;;15.70;99.90;;;;;;5004106;28;20209;-79
2022/03/18 11:06:03;;;;;;;10.57;5.30;;;15.70;99.90;;;;;;5005484;28;20220;-80
2022/03/18 11:08:36;;;;;;;8.33;4.13;;;15.60;99.90;;;;;;5005350;28;20236;-80
2022/03/18 11:11:10;;;;;;;9.30;4.47;;;15.60;99.90;;;;;;5005463;28;20207;-79
2022/03/18 11:13:45;;;;;;;12.07;4.60;;;15.70;99.90;;;;;;5004246;28;20207;-77
2022/03/18 11:16:13;;;;;;;12.07;5.33;;;15.90;99.90;;;;;;5005521;28;20229;-79
2022/03/18 11:18:41;;;;;;;13.32;5.18;;;15.90;99.90;;;;;;5004570;28;20198;-80
2022/03/18 11:21:11;;;;;;;10.82;4.55;;;15.90;99.90;;;;;;5004623;28;20882;-79
2022/03/18 11:23:42;;;;;;;10.05;3.92;;;16.10;99.90;;;;;;5006875;28;20231;-78
2022/03/18 11:26:11;;;;;;;9.57;4.30;;;16.00;99.90;;;;;;5019086;28;20226;-76
2022/03/18 11:28:38;;;;;;;11.65;5.10;;;16.20;99.90;;;;;;5027654;28;20207;-75
2022/03/18 11:31:07;;;;;;;10.63;4.28;;;16.30;99.90;;;;;;5021680;28;20527;-76
2022/03/18 11:33:34;;;;;;;9.85;4.57;;;16.30;99.90;;;;;;5026247;28;20222;-75
2022/03/18 11:36:15;;;;;;;7.78;3.90;;;16.40;99.90;;;;;;5027719;28;20269;-76
2022/03/18 11:39:02;;;;;;;8.80;4.18;;;16.40;99.90;;;;;;5014741;28;20324;-79
2022/03/18 11:41:55;;;;;;;9.25;3.47;;;16.60;99.90;;;;;;5006773;28;21099;-77
2022/03/18 11:44:43;;;;;;;9.20;4.20;;;16.80;99.90;;;;;;5007751;28;20216;-75
2022/03/18 11:47:40;;;;;;;7.18;3.22;;;16.90;99.90;;;;;;5012939;28;20234;-78
2022/03/18 11:50:42;;;;;;;10.48;4.20;;;17.00;99.90;;;;;;5027912;28;20211;-78
2022/03/18 11:53:13;;;;;;;9.20;3.10;;;16.90;99.90;;;;;;4971360;28;20210;-75
2022/03/18 11:55:41;;;;;;;10.77;3.95;;;16.90;99.90;;;;;;5008873;28;20214;-77
2022/03/18 11:58:29;;;;;;;9.85;4.22;;;16.80;99.90;;;;;;5009557;28;20589;-81
2022/03/18 12:00:56;;;;;;;8.80;4.22;;;16.90;99.90;;;;;;5026935;28;20615;-75
2022/03/18 12:03:29;;;;;;;9.80;3.63;;;16.80;99.90;;;;;;5024000;28;20210;-76
2022/03/18 12:05:58;;;;;;;6.63;3.67;;;17.00;99.90;;;;;;5026754;28;20211;-75
2022/03/18 12:09:00;;;;;;;9.82;3.85;;;17.20;99.90;;;;;;5008099;28;20227;-80
2022/03/18 12:11:36;;;;;;;11.15;4.20;;;17.30;99.90;;;;;;5011230;28;20210;-84
2022/03/18 12:14:05;;;;;;;9.40;4.60;;;17.30;99.90;;;;;;5009953;28;20646;-85
2022/03/18 12:16:32;;;;;;;7.72;4.18;;;17.40;99.90;;;;;;5012531;28;21037;-81
2022/03/18 12:19:00;;;;;;;9.07;3.63;;;17.50;99.90;;;;;;5014153;28;20637;-81
2022/03/18 12:21:37;;;;;;;9.68;3.83;;;17.70;99.90;;;;;;5031629;28;20332;-88
2022/03/18 12:24:08;;;;;;;9.38;3.70;;;17.60;99.90;;;;;;5020800;28;20214;-87
2022/03/18 12:26:36;;;;;;;12.07;3.90;;;17.40;99.90;;;;;;5018616;28;20222;-85
2022/03/18 12:29:04;;;;;;;8.63;3.60;;;17.40;99.90;;;;;;5032558;28;20211;-86
2022/03/18 12:31:31;;;;;;;13.00;4.22;;;17.30;99.90;;;;;;5029737;28;20623;-83
2022/03/18 12:33:58;;;;;;;12.38;4.13;;;17.00;99.90;;;;;;5020371;28;20231;-80
2022/03/18 12:36:26;;;;;;;9.30;3.22;;;17.00;99.90;;;;;;5008107;28;20207;-79
2022/03/18 12:39:07;;;;;;;8.45;3.08;;;17.00;99.90;;;;;;5009605;28;20798;-82
2022/03/18 12:41:34;;;;;;;9.48;3.50;;;17.00;99.90;;;;;;5010552;28;20234;-80
2022/03/18 12:44:01;;;;;;;9.98;3.47;;;16.90;99.90;;;;;;5009677;28;20211;-81
2022/03/18 12:46:29;;;;;;;8.20;3.15;;;16.90;99.90;;;;;;5007288;28;20226;-78
2022/03/18 12:48:56;;;;;;;8.00;3.78;;;16.90;99.90;;;;;;5027105;28;20206;-76
2022/03/18 12:51:24;;;;;;;7.28;2.97;;;16.80;99.90;;;;;;5014578;28;20327;-81
2022/03/18 12:53:50;;;;;;;7.25;4.15;;;16.80;99.90;;;;;;5007871;28;20608;-76
2022/03/18 12:56:22;;;;;;;8.75;3.80;;;16.80;99.90;;;;;;5007250;28;20214;-78
2022/03/18 12:58:49;;;;;;;10.63;3.47;;;16.90;99.90;;;;;;5007055;28;20214;-76
2022/03/18 13:01:16;;;;;;;8.75;3.72;;;16.90;99.90;;;;;;5006999;28;20207;-77
2022/03/18 13:03:51;;;;;;;7.97;3.58;;;16.80;99.90;;;;;;5005949;28;20200;-78
2022/03/18 13:06:20;;;;;;;6.97;3.00;;;16.70;99.90;;;;;;5007003;28;20209;-76
2022/03/18 13:08:47;;;;;;;12.18;4.80;;;16.70;99.90;;;;;;5006586;28;20206;-77
2022/03/18 13:11:14;;;;;;;10.20;4.18;;;16.80;99.90;;;;;;5005957;28;20199;-77
2022/03/18 13:13:47;;;;;;;9.95;4.13;;;16.80;99.90;;;;;;5006444;28;20195;-76
2022/03/18 13:16:15;;;;;;;10.25;4.55;;;16.80;99.90;;;;;;5005914;28;20227;-76
2022/03/18 13:18:50;;;;;;;9.20;4.40;;;16.80;99.90;;;;;;5010787;28;20202;-77